createdAt,value
2023-04-18T00:00:06.221Z,92870.00
2023-04-18T00:01:06.397Z,92870.00
2023-04-18T00:02:06.586Z,92866.00
2023-04-18T00:03:06.913Z,92868.00
2023-04-18T00:04:07.141Z,92864.00
2023-04-18T00:05:07.142Z,92866.00
2023-04-18T00:06:07.261Z,92866.00
2023-04-18T00:07:07.447Z,92864.00
2023-04-18T00:08:07.628Z,92862.00
2023-04-18T00:09:07.883Z,92862.00
2023-04-18T00:10:08.053Z,92862.00
2023-04-18T00:11:08.130Z,92862.00
2023-04-18T00:12:08.297Z,92864.00
2023-04-18T00:13:08.472Z,92862.00
2023-04-18T00:14:08.672Z,92864.00
2023-04-18T00:15:08.833Z,92860.00
2023-04-18T00:16:09.018Z,92860.00
2023-04-18T00:17:09.256Z,92858.00
2023-04-18T00:18:09.508Z,92860.00
2023-04-18T00:19:09.598Z,92856.00
2023-04-18T00:20:09.783Z,92860.00
2023-04-18T00:21:10.011Z,92858.00
2023-04-18T00:22:10.182Z,92860.00
2023-04-18T00:23:12.158Z,92860.00
2023-04-18T00:24:10.360Z,92862.00
2023-04-18T00:25:10.281Z,92862.00
2023-04-18T00:26:10.219Z,92862.00
2023-04-18T00:27:10.145Z,92862.00
2023-04-18T00:28:10.076Z,92860.00
2023-04-18T00:29:09.999Z,92860.00
2023-04-18T00:30:09.939Z,92858.00
2023-04-18T00:31:09.963Z,92860.00
2023-04-18T00:32:09.792Z,92858.00
2023-04-18T00:33:10.720Z,92860.00
2023-04-18T00:34:09.633Z,92860.00
2023-04-18T00:35:09.563Z,92862.00
2023-04-18T00:36:09.489Z,92860.00
2023-04-18T00:37:09.415Z,92860.00
2023-04-18T00:38:09.342Z,92860.00
2023-04-18T00:39:09.261Z,92858.00
2023-04-18T00:40:09.187Z,92862.00
2023-04-18T00:41:09.132Z,92860.00
2023-04-18T00:42:09.211Z,92858.00
2023-04-18T00:43:09.361Z,92862.00
2023-04-18T00:44:09.587Z,92862.00
2023-04-18T00:45:09.671Z,92862.00
2023-04-18T00:46:09.931Z,92862.00
2023-04-18T00:47:10.100Z,92860.00
2023-04-18T00:48:10.304Z,92860.00
2023-04-18T00:49:10.517Z,92862.00
2023-04-18T00:50:10.734Z,92860.00
2023-04-18T00:51:10.846Z,92860.00
2023-04-18T00:52:11.036Z,92862.00
2023-04-18T00:53:11.342Z,92860.00
2023-04-18T00:54:11.696Z,92856.00
2023-04-18T00:55:11.497Z,92858.00
2023-04-18T00:56:11.510Z,92854.00
2023-04-18T00:57:11.490Z,92858.00
2023-04-18T00:58:11.479Z,92858.00
2023-04-18T00:59:11.487Z,92854.00
2023-04-18T01:00:11.487Z,92856.00
2023-04-18T01:01:11.514Z,92854.00
2023-04-18T01:02:11.490Z,92854.00
2023-04-18T01:03:11.636Z,92854.00
2023-04-18T01:04:11.695Z,92856.00
2023-04-18T01:05:11.521Z,92856.00
2023-04-18T01:06:11.452Z,92862.00
2023-04-18T01:07:11.454Z,92860.00
2023-04-18T01:08:11.459Z,92858.00
2023-04-18T01:09:11.420Z,92860.00
2023-04-18T01:10:11.415Z,92860.00
2023-04-18T01:11:11.422Z,92858.00
2023-04-18T01:12:11.411Z,92862.00
2023-04-18T01:13:11.356Z,92862.00
2023-04-18T01:14:11.576Z,92864.00
2023-04-18T01:15:11.343Z,92860.00
2023-04-18T01:16:11.389Z,92858.00
2023-04-18T01:17:11.336Z,92856.00
2023-04-18T01:18:11.335Z,92854.00
2023-04-18T01:19:11.337Z,92852.00
2023-04-18T01:20:11.393Z,92852.00
2023-04-18T01:21:11.511Z,92852.00
2023-04-18T01:22:11.731Z,92850.00
2023-04-18T01:23:11.944Z,92848.00
2023-04-18T01:24:12.473Z,92846.00
2023-04-18T01:25:12.162Z,92848.00
2023-04-18T01:26:12.162Z,92848.00
2023-04-18T01:27:12.151Z,92848.00
2023-04-18T01:28:12.159Z,92844.00
2023-04-18T01:29:12.185Z,92844.00
2023-04-18T01:30:12.153Z,92842.00
2023-04-18T01:31:12.242Z,92844.00
2023-04-18T01:32:12.156Z,92844.00
2023-04-18T01:33:12.149Z,92844.00
2023-04-18T01:34:12.355Z,92844.00
2023-04-18T01:35:12.160Z,92844.00
2023-04-18T01:36:12.164Z,92840.00
2023-04-18T01:37:12.169Z,92833.00
2023-04-18T01:38:12.175Z,92833.00
2023-04-18T01:39:12.172Z,92840.00
2023-04-18T01:40:12.160Z,92844.00
2023-04-18T01:41:12.171Z,92844.00
2023-04-18T01:42:12.168Z,92846.00
2023-04-18T01:43:12.176Z,92840.00
2023-04-18T01:44:12.321Z,92842.00
2023-04-18T01:45:12.197Z,92840.00
2023-04-18T01:46:12.202Z,92842.00
2023-04-18T01:47:12.179Z,92844.00
2023-04-18T01:48:12.185Z,92844.00
2023-04-18T01:49:12.178Z,92842.00
2023-04-18T01:50:12.865Z,92842.00
2023-04-18T01:51:12.211Z,92842.00
2023-04-18T01:52:12.193Z,92833.00
2023-04-18T01:53:12.196Z,92833.00
2023-04-18T01:54:12.339Z,92833.00
2023-04-18T01:55:12.200Z,92842.00
2023-04-18T01:56:12.176Z,92842.00
2023-04-18T01:57:12.162Z,92842.00
2023-04-18T01:58:12.172Z,92842.00
2023-04-18T01:59:12.176Z,92842.00
2023-04-18T02:00:12.176Z,92842.00
2023-04-18T02:01:12.218Z,92833.00
2023-04-18T02:02:12.206Z,92842.00
2023-04-18T02:03:12.185Z,92831.00
2023-04-18T02:04:12.333Z,92833.00
2023-04-18T02:05:12.143Z,92829.00
2023-04-18T02:06:12.146Z,92829.00
2023-04-18T02:07:12.147Z,92829.00
2023-04-18T02:08:12.151Z,92829.00
2023-04-18T02:09:12.136Z,92829.00
2023-04-18T02:10:12.145Z,92829.00
2023-04-18T02:11:12.124Z,92831.00
2023-04-18T02:12:12.105Z,92829.00
2023-04-18T02:13:12.101Z,92829.00
2023-04-18T02:14:12.335Z,92829.00
2023-04-18T02:15:12.073Z,92827.00
2023-04-18T02:16:12.109Z,92831.00
2023-04-18T02:17:12.096Z,92829.00
2023-04-18T02:18:12.062Z,92829.00
2023-04-18T02:19:12.048Z,92833.00
2023-04-18T02:20:12.054Z,92829.00
2023-04-18T02:21:12.038Z,92829.00
2023-04-18T02:22:12.034Z,92829.00
2023-04-18T02:23:12.020Z,92829.00
2023-04-18T02:24:12.223Z,92831.00
2023-04-18T02:25:12.010Z,92831.00
2023-04-18T02:26:11.976Z,92831.00
2023-04-18T02:27:11.979Z,92831.00
2023-04-18T02:28:12.014Z,92842.00
2023-04-18T02:29:12.221Z,92833.00
2023-04-18T02:30:12.426Z,92831.00
2023-04-18T02:31:12.646Z,92833.00
2023-04-18T02:32:12.880Z,92831.00
2023-04-18T02:33:13.048Z,92831.00
2023-04-18T02:34:13.472Z,92833.00
2023-04-18T02:35:13.215Z,92833.00
2023-04-18T02:36:13.203Z,92842.00
2023-04-18T02:37:13.204Z,92842.00
2023-04-18T02:38:13.210Z,92840.00
2023-04-18T02:39:13.189Z,92842.00
2023-04-18T02:40:13.179Z,92846.00
2023-04-18T02:41:13.182Z,92844.00
2023-04-18T02:42:13.154Z,92846.00
2023-04-18T02:43:13.141Z,92848.00
2023-04-18T02:44:13.250Z,92848.00
2023-04-18T02:45:13.118Z,92846.00
2023-04-18T02:46:13.138Z,92848.00
2023-04-18T02:47:13.124Z,92848.00
2023-04-18T02:48:13.144Z,92852.00
2023-04-18T02:49:13.125Z,92850.00
2023-04-18T02:50:13.120Z,92850.00
2023-04-18T02:51:13.100Z,92850.00
2023-04-18T02:52:13.173Z,92850.00
2023-04-18T02:53:13.108Z,92848.00
2023-04-18T02:54:13.370Z,92848.00
2023-04-18T02:55:13.116Z,92848.00
2023-04-18T02:56:13.099Z,92844.00
2023-04-18T02:57:13.094Z,92846.00
2023-04-18T02:58:13.085Z,92846.00
2023-04-18T02:59:13.087Z,92846.00
2023-04-18T03:00:13.081Z,92846.00
2023-04-18T03:01:13.099Z,92844.00
2023-04-18T03:02:13.095Z,92844.00
2023-04-18T03:03:13.132Z,92844.00
2023-04-18T03:04:13.395Z,92844.00
2023-04-18T03:05:13.083Z,92844.00
2023-04-18T03:06:13.053Z,92840.00
2023-04-18T03:07:13.042Z,92842.00
2023-04-18T03:08:13.072Z,92842.00
2023-04-18T03:09:13.057Z,92840.00
2023-04-18T03:10:13.071Z,92840.00
2023-04-18T03:11:13.052Z,92840.00
2023-04-18T03:12:13.029Z,92842.00
2023-04-18T03:13:13.027Z,92833.00
2023-04-18T03:14:13.195Z,92842.00
2023-04-18T03:15:13.032Z,92842.00
2023-04-18T03:16:13.052Z,92842.00
2023-04-18T03:17:13.017Z,92833.00
2023-04-18T03:18:13.067Z,92840.00
2023-04-18T03:19:13.018Z,92842.00
2023-04-18T03:20:13.024Z,92833.00
2023-04-18T03:21:13.021Z,92840.00
2023-04-18T03:22:13.003Z,92833.00
2023-04-18T03:23:13.016Z,92840.00
2023-04-18T03:24:13.245Z,92840.00
2023-04-18T03:25:13.042Z,92840.00
2023-04-18T03:26:13.031Z,92842.00
2023-04-18T03:27:13.058Z,92840.00
2023-04-18T03:28:13.045Z,92833.00
2023-04-18T03:29:13.025Z,92833.00
2023-04-18T03:30:13.038Z,92842.00
2023-04-18T03:31:13.041Z,92840.00
2023-04-18T03:32:13.012Z,92842.00
2023-04-18T03:33:13.020Z,92842.00
2023-04-18T03:34:13.241Z,92844.00
2023-04-18T03:35:13.031Z,92842.00
2023-04-18T03:36:13.021Z,92842.00
2023-04-18T03:37:13.033Z,92842.00
2023-04-18T03:38:13.028Z,92844.00
2023-04-18T03:39:13.038Z,92844.00
2023-04-18T03:40:12.998Z,92844.00
2023-04-18T03:41:13.192Z,92840.00
2023-04-18T03:42:13.335Z,92842.00
2023-04-18T03:43:13.474Z,92842.00
2023-04-18T03:44:13.861Z,92840.00
2023-04-18T03:45:13.921Z,92842.00
2023-04-18T03:46:14.117Z,92840.00
2023-04-18T03:47:14.211Z,92840.00
2023-04-18T03:48:14.432Z,92840.00
2023-04-18T03:49:14.653Z,92844.00
2023-04-18T03:50:14.785Z,92844.00
2023-04-18T03:51:14.910Z,92848.00
2023-04-18T03:52:15.048Z,92846.00
2023-04-18T03:53:15.248Z,92846.00
2023-04-18T03:54:15.767Z,92846.00
2023-04-18T03:55:15.467Z,92844.00
2023-04-18T03:56:15.468Z,92846.00
2023-04-18T03:57:15.461Z,92846.00
2023-04-18T03:58:15.451Z,92840.00
2023-04-18T03:59:15.453Z,92844.00
2023-04-18T04:00:15.439Z,92842.00
2023-04-18T04:01:15.426Z,92848.00
2023-04-18T04:02:15.511Z,92846.00
2023-04-18T04:03:15.481Z,92848.00
2023-04-18T04:04:15.806Z,92848.00
2023-04-18T04:05:15.391Z,92846.00
2023-04-18T04:06:15.361Z,92850.00
2023-04-18T04:07:15.373Z,92846.00
2023-04-18T04:08:15.366Z,92848.00
2023-04-18T04:09:15.370Z,92846.00
2023-04-18T04:10:15.373Z,92848.00
2023-04-18T04:11:15.349Z,92848.00
2023-04-18T04:12:15.351Z,92850.00
2023-04-18T04:13:15.354Z,92848.00
2023-04-18T04:14:15.534Z,92848.00
2023-04-18T04:15:15.353Z,92846.00
2023-04-18T04:16:15.375Z,92850.00
2023-04-18T04:17:15.354Z,92850.00
2023-04-18T04:18:15.352Z,92852.00
2023-04-18T04:19:15.338Z,92852.00
2023-04-18T04:20:15.347Z,92854.00
2023-04-18T04:21:15.328Z,92852.00
2023-04-18T04:22:15.328Z,92856.00
2023-04-18T04:23:15.333Z,92856.00
2023-04-18T04:24:15.653Z,92856.00
2023-04-18T04:25:15.330Z,92858.00
2023-04-18T04:26:15.305Z,92860.00
2023-04-18T04:27:15.315Z,92856.00
2023-04-18T04:28:15.304Z,92860.00
2023-04-18T04:29:15.304Z,92860.00
2023-04-18T04:30:15.306Z,92854.00
2023-04-18T04:31:15.303Z,92854.00
2023-04-18T04:32:15.294Z,92854.00
2023-04-18T04:33:15.295Z,92854.00
2023-04-18T04:34:15.447Z,92854.00
2023-04-18T04:35:15.307Z,92854.00
2023-04-18T04:36:17.332Z,92858.00
2023-04-18T04:37:15.281Z,92854.00
2023-04-18T04:38:15.216Z,92854.00
2023-04-18T04:39:15.108Z,92856.00
2023-04-18T04:40:15.060Z,92856.00
2023-04-18T04:41:14.987Z,92856.00
2023-04-18T04:42:14.915Z,92856.00
2023-04-18T04:43:14.840Z,92856.00
2023-04-18T04:44:14.948Z,92858.00
2023-04-18T04:45:14.706Z,92856.00
2023-04-18T04:46:14.709Z,92856.00
2023-04-18T04:47:14.577Z,92858.00
2023-04-18T04:48:14.514Z,92856.00
2023-04-18T04:49:14.434Z,92858.00
2023-04-18T04:50:14.374Z,92858.00
2023-04-18T04:51:14.304Z,92860.00
2023-04-18T04:52:14.245Z,92860.00
2023-04-18T04:53:14.182Z,92864.00
2023-04-18T04:54:14.495Z,92862.00
2023-04-18T04:55:14.165Z,92864.00
2023-04-18T04:56:14.068Z,92864.00
2023-04-18T04:57:14.110Z,92864.00
2023-04-18T04:58:13.934Z,92866.00
2023-04-18T04:59:13.863Z,92868.00
2023-04-18T05:00:13.812Z,92866.00
2023-04-18T05:01:13.801Z,92868.00
2023-04-18T05:02:13.735Z,92866.00
2023-04-18T05:03:13.662Z,92868.00
2023-04-18T05:04:13.879Z,92874.00
2023-04-18T05:05:13.466Z,92874.00
2023-04-18T05:06:13.408Z,92874.00
2023-04-18T05:07:13.347Z,92875.00
2023-04-18T05:08:13.283Z,92877.00
2023-04-18T05:09:13.256Z,92875.00
2023-04-18T05:10:13.178Z,92877.00
2023-04-18T05:11:13.118Z,92877.00
2023-04-18T05:12:13.060Z,92877.00
2023-04-18T05:13:13.029Z,92883.00
2023-04-18T05:14:13.275Z,92883.00
2023-04-18T05:15:13.010Z,92885.00
2023-04-18T05:16:13.028Z,92885.00
2023-04-18T05:17:12.954Z,92885.00
2023-04-18T05:18:13.110Z,92887.00
2023-04-18T05:19:13.273Z,92885.00
2023-04-18T05:20:13.456Z,92885.00
2023-04-18T05:21:13.756Z,92885.00
2023-04-18T05:22:13.902Z,92887.00
2023-04-18T05:23:14.072Z,92889.00
2023-04-18T05:24:14.591Z,92887.00
2023-04-18T05:25:14.225Z,92887.00
2023-04-18T05:26:14.217Z,92887.00
2023-04-18T05:27:15.049Z,92889.00
2023-04-18T05:28:14.215Z,92891.00
2023-04-18T05:29:14.221Z,92891.00
2023-04-18T05:30:14.244Z,92889.00
2023-04-18T05:31:14.259Z,92891.00
2023-04-18T05:32:14.224Z,92893.00
2023-04-18T05:33:14.177Z,92893.00
2023-04-18T05:34:14.483Z,92895.00
2023-04-18T05:35:14.511Z,92893.00
2023-04-18T05:36:14.668Z,92893.00
2023-04-18T05:37:14.827Z,92891.00
2023-04-18T05:38:14.767Z,92891.00
2023-04-18T05:39:14.705Z,92889.00
2023-04-18T05:40:14.629Z,92891.00
2023-04-18T05:41:15.434Z,92889.00
2023-04-18T05:42:14.500Z,92889.00
2023-04-18T05:43:14.435Z,92887.00
2023-04-18T05:44:14.389Z,92889.00
2023-04-18T05:45:14.949Z,92889.00
2023-04-18T05:46:14.268Z,92889.00
2023-04-18T05:47:14.174Z,92889.00
2023-04-18T05:48:14.104Z,92889.00
2023-04-18T05:49:14.043Z,92887.00
2023-04-18T05:50:13.974Z,92889.00
2023-04-18T05:51:13.910Z,92889.00
2023-04-18T05:52:13.838Z,92891.00
2023-04-18T05:53:13.916Z,92889.00
2023-04-18T05:54:14.365Z,92889.00
2023-04-18T05:55:14.117Z,92891.00
2023-04-18T05:56:14.128Z,92891.00
2023-04-18T05:57:14.139Z,92891.00
2023-04-18T05:58:14.116Z,92891.00
2023-04-18T05:59:14.113Z,92893.00
2023-04-18T06:00:14.232Z,92895.00
2023-04-18T06:01:14.111Z,92897.00
2023-04-18T06:02:14.142Z,92897.00
2023-04-18T06:03:14.155Z,92899.00
2023-04-18T06:04:14.540Z,92899.00
2023-04-18T06:05:14.401Z,92901.00
2023-04-18T06:06:14.116Z,92897.00
2023-04-18T06:07:14.104Z,92901.00
2023-04-18T06:08:14.083Z,92901.00
2023-04-18T06:09:14.248Z,92901.00
2023-04-18T06:10:14.425Z,92903.00
2023-04-18T06:11:14.686Z,92901.00
2023-04-18T06:12:14.911Z,92905.00
2023-04-18T06:13:15.094Z,92903.00
2023-04-18T06:14:15.677Z,92903.00
2023-04-18T06:15:15.333Z,92903.00
2023-04-18T06:16:15.374Z,92903.00
2023-04-18T06:17:15.313Z,92907.00
2023-04-18T06:18:15.319Z,92907.00
2023-04-18T06:19:15.308Z,92909.00
2023-04-18T06:20:15.318Z,92909.00
2023-04-18T06:21:15.301Z,92915.00
2023-04-18T06:22:15.300Z,92915.00
2023-04-18T06:23:15.302Z,92915.00
2023-04-18T06:24:15.695Z,92915.00
2023-04-18T06:25:15.293Z,92917.00
2023-04-18T06:26:15.371Z,92917.00
2023-04-18T06:27:30.274Z,92917.00
2023-04-18T06:28:16.856Z,92919.00
2023-04-18T06:29:15.144Z,92921.00
2023-04-18T06:30:15.118Z,92917.00
2023-04-18T06:31:15.116Z,92919.00
2023-04-18T06:32:14.952Z,92919.00
2023-04-18T06:33:14.974Z,92921.00
2023-04-18T06:34:15.799Z,92923.00
2023-04-18T06:35:14.734Z,92917.00
2023-04-18T06:36:14.667Z,92919.00
2023-04-18T06:37:14.601Z,92917.00
2023-04-18T06:38:14.589Z,92917.00
2023-04-18T06:39:14.582Z,92915.00
2023-04-18T06:40:14.579Z,92917.00
2023-04-18T06:41:14.581Z,92917.00
2023-04-18T06:42:14.607Z,92915.00
2023-04-18T06:43:14.568Z,92913.00
2023-04-18T06:44:14.698Z,92913.00
2023-04-18T06:45:14.530Z,92915.00
2023-04-18T06:46:14.541Z,92913.00
2023-04-18T06:47:14.564Z,92911.00
2023-04-18T06:48:14.776Z,92913.00
2023-04-18T06:49:14.968Z,92909.00
2023-04-18T06:50:15.167Z,92911.00
2023-04-18T06:51:15.373Z,92909.00
2023-04-18T06:52:15.593Z,92909.00
2023-04-18T06:53:15.814Z,92907.00
2023-04-18T06:54:16.196Z,92907.00
2023-04-18T06:55:16.149Z,92907.00
2023-04-18T06:56:16.339Z,92905.00
2023-04-18T06:57:16.553Z,92905.00
2023-04-18T06:58:16.903Z,92905.00
2023-04-18T06:59:16.993Z,92905.00
2023-04-18T07:00:17.279Z,92905.00
2023-04-18T07:01:17.502Z,92905.00
2023-04-18T07:02:17.770Z,92903.00
2023-04-18T07:03:18.264Z,92905.00
2023-04-18T07:04:18.451Z,92901.00
2023-04-18T07:05:17.885Z,92899.00
2023-04-18T07:06:17.850Z,92901.00
2023-04-18T07:07:17.799Z,92895.00
2023-04-18T07:08:18.450Z,92895.00
2023-04-18T07:09:17.996Z,92895.00
2023-04-18T07:10:17.947Z,92897.00
2023-04-18T07:11:17.930Z,92895.00
2023-04-18T07:12:17.891Z,92891.00
2023-04-18T07:13:17.829Z,92893.00
2023-04-18T07:14:17.785Z,92893.00
2023-04-18T07:15:17.750Z,92893.00
2023-04-18T07:16:17.704Z,92891.00
2023-04-18T07:17:17.669Z,92887.00
2023-04-18T07:18:30.288Z,92889.00
2023-04-18T07:19:18.511Z,92887.00
2023-04-18T07:20:17.413Z,92883.00
2023-04-18T07:21:17.777Z,92885.00
2023-04-18T07:22:17.641Z,92883.00
2023-04-18T07:23:17.879Z,92883.00
2023-04-18T07:24:18.085Z,92879.00
2023-04-18T07:25:18.311Z,92881.00
2023-04-18T07:26:18.533Z,92881.00
2023-04-18T07:27:18.701Z,92875.00
2023-04-18T07:28:20.364Z,92881.00
2023-04-18T07:29:18.880Z,92879.00
2023-04-18T07:30:18.693Z,92874.00
2023-04-18T07:31:18.630Z,92875.00
2023-04-18T07:32:18.608Z,92872.00
2023-04-18T07:33:18.447Z,92875.00
2023-04-18T07:34:18.345Z,92875.00
2023-04-18T07:35:18.376Z,92875.00
2023-04-18T07:36:18.186Z,92875.00
2023-04-18T07:37:18.069Z,92875.00
2023-04-18T07:38:18.960Z,92877.00
2023-04-18T07:39:17.893Z,92877.00
2023-04-18T07:40:17.896Z,92877.00
2023-04-18T07:41:17.696Z,92875.00
2023-04-18T07:42:17.589Z,92877.00
2023-04-18T07:43:18.398Z,92877.00
2023-04-18T07:44:17.435Z,92877.00
2023-04-18T07:45:17.313Z,92875.00
2023-04-18T07:46:17.287Z,92875.00
2023-04-18T07:47:17.160Z,92877.00
2023-04-18T07:48:17.082Z,92879.00
2023-04-18T07:49:17.048Z,92877.00
2023-04-18T07:50:16.870Z,92877.00
2023-04-18T07:51:17.020Z,92879.00
2023-04-18T07:52:16.766Z,92874.00
2023-04-18T07:53:16.967Z,92875.00
2023-04-18T07:54:17.130Z,92877.00
2023-04-18T07:55:17.392Z,92879.00
2023-04-18T07:56:17.572Z,92875.00
2023-04-18T07:57:17.675Z,92874.00
2023-04-18T07:58:17.958Z,92875.00
2023-04-18T07:59:18.055Z,92875.00
2023-04-18T08:00:18.325Z,92877.00
2023-04-18T08:01:18.519Z,92877.00
2023-04-18T08:02:18.727Z,92877.00
2023-04-18T08:03:19.097Z,92877.00
2023-04-18T08:04:19.027Z,92877.00
2023-04-18T08:05:18.786Z,92875.00
2023-04-18T08:06:19.005Z,92881.00
2023-04-18T08:07:18.770Z,92879.00
2023-04-18T08:08:18.861Z,92877.00
2023-04-18T08:09:18.965Z,92879.00
2023-04-18T08:10:19.190Z,92879.00
2023-04-18T08:11:19.377Z,92877.00
2023-04-18T08:12:19.513Z,92881.00
2023-04-18T08:13:19.769Z,92877.00
2023-04-18T08:14:19.953Z,92883.00
2023-04-18T08:15:20.116Z,92883.00
2023-04-18T08:16:20.373Z,92881.00
2023-04-18T08:17:20.536Z,92881.00
2023-04-18T08:18:20.705Z,92883.00
2023-04-18T08:19:20.859Z,92881.00
2023-04-18T08:20:21.047Z,92883.00
2023-04-18T08:21:21.324Z,92881.00
2023-04-18T08:22:21.621Z,92879.00
2023-04-18T08:23:21.630Z,92883.00
2023-04-18T08:24:21.830Z,92881.00
2023-04-18T08:25:22.008Z,92883.00
2023-04-18T08:26:22.203Z,92883.00
2023-04-18T08:27:22.375Z,92883.00
2023-04-18T08:28:22.556Z,92883.00
2023-04-18T08:29:22.726Z,92881.00
2023-04-18T08:30:22.903Z,92879.00
2023-04-18T08:31:23.933Z,92879.00
2023-04-18T08:32:23.117Z,92879.00
2023-04-18T08:33:23.048Z,92879.00
2023-04-18T08:34:23.014Z,92875.00
2023-04-18T08:35:22.997Z,92881.00
2023-04-18T08:36:22.947Z,92879.00
2023-04-18T08:37:22.868Z,92879.00
2023-04-18T08:38:22.835Z,92875.00
2023-04-18T08:39:25.188Z,92875.00
2023-04-18T08:40:22.845Z,92875.00
2023-04-18T08:41:22.805Z,92874.00
2023-04-18T08:42:22.776Z,92875.00
2023-04-18T08:43:22.740Z,92875.00
2023-04-18T08:44:22.709Z,92870.00
2023-04-18T08:45:22.645Z,92874.00
2023-04-18T08:46:22.785Z,92875.00
2023-04-18T08:47:22.545Z,92874.00
2023-04-18T08:48:22.509Z,92874.00
2023-04-18T08:49:22.399Z,92875.00
2023-04-18T08:50:22.355Z,92875.00
2023-04-18T08:51:22.466Z,92870.00
2023-04-18T08:52:22.711Z,92870.00
2023-04-18T08:53:22.845Z,92870.00
2023-04-18T08:54:23.838Z,92872.00
2023-04-18T08:55:22.918Z,92872.00
2023-04-18T08:56:22.877Z,92874.00
2023-04-18T08:57:22.807Z,92877.00
2023-04-18T08:58:22.719Z,92875.00
2023-04-18T08:59:22.646Z,92875.00
2023-04-18T09:00:22.593Z,92874.00
2023-04-18T09:01:22.583Z,92874.00
2023-04-18T09:02:22.567Z,92875.00
2023-04-18T09:03:22.521Z,92874.00
2023-04-18T09:04:22.694Z,92877.00
2023-04-18T09:05:22.779Z,92875.00
2023-04-18T09:06:22.961Z,92877.00
2023-04-18T09:07:23.122Z,92875.00
2023-04-18T09:08:23.270Z,92875.00
2023-04-18T09:09:23.405Z,92872.00
2023-04-18T09:10:23.634Z,92874.00
2023-04-18T09:11:23.778Z,92868.00
2023-04-18T09:12:23.913Z,92866.00
2023-04-18T09:13:24.621Z,92866.00
2023-04-18T09:14:23.975Z,92868.00
2023-04-18T09:15:23.881Z,92868.00
2023-04-18T09:16:23.768Z,92870.00
2023-04-18T09:17:23.748Z,92866.00
2023-04-18T09:18:24.487Z,92870.00
2023-04-18T09:19:23.361Z,92870.00
2023-04-18T09:20:23.236Z,92866.00
2023-04-18T09:21:23.100Z,92862.00
2023-04-18T09:22:22.955Z,92862.00
2023-04-18T09:23:22.819Z,92864.00
2023-04-18T09:24:22.713Z,92866.00
2023-04-18T09:25:23.401Z,92864.00
2023-04-18T09:26:22.638Z,92866.00
2023-04-18T09:27:22.401Z,92866.00
2023-04-18T09:28:22.985Z,92860.00
2023-04-18T09:29:22.533Z,92860.00
2023-04-18T09:30:22.369Z,92860.00
2023-04-18T09:31:22.345Z,92860.00
2023-04-18T09:32:22.200Z,92858.00
2023-04-18T09:33:22.063Z,92860.00
2023-04-18T09:34:21.975Z,92860.00
2023-04-18T09:35:21.867Z,92856.00
2023-04-18T09:36:21.775Z,92856.00
2023-04-18T09:37:21.705Z,92860.00
2023-04-18T09:38:21.659Z,92858.00
2023-04-18T09:39:21.572Z,92858.00
2023-04-18T09:40:21.498Z,92858.00
2023-04-18T09:41:21.741Z,92856.00
2023-04-18T09:42:22.031Z,92856.00
2023-04-18T09:43:22.124Z,92856.00
2023-04-18T09:44:22.267Z,92858.00
2023-04-18T09:45:22.433Z,92854.00
2023-04-18T09:46:22.688Z,92854.00
2023-04-18T09:47:22.806Z,92856.00
2023-04-18T09:48:23.002Z,92852.00
2023-04-18T09:49:23.141Z,92852.00
2023-04-18T09:50:23.367Z,92852.00
2023-04-18T09:51:23.503Z,92854.00
2023-04-18T09:52:23.833Z,92854.00
2023-04-18T09:53:23.843Z,92852.00
2023-04-18T09:54:24.098Z,92850.00
2023-04-18T09:55:24.427Z,92848.00
2023-04-18T09:56:24.433Z,92848.00
2023-04-18T09:57:25.322Z,92850.00
2023-04-18T09:58:24.155Z,92846.00
2023-04-18T09:59:24.070Z,92844.00
2023-04-18T10:00:24.064Z,92848.00
2023-04-18T10:01:23.799Z,92842.00
2023-04-18T10:02:24.608Z,92844.00
2023-04-18T10:03:23.607Z,92842.00
2023-04-18T10:04:23.452Z,92842.00
2023-04-18T10:05:23.282Z,92833.00
2023-04-18T10:06:23.130Z,92831.00
2023-04-18T10:07:23.009Z,92833.00
2023-04-18T10:08:23.494Z,92833.00
2023-04-18T10:09:22.734Z,92833.00
2023-04-18T10:10:22.662Z,92840.00
2023-04-18T10:11:22.471Z,92829.00
2023-04-18T10:12:22.393Z,92827.00
2023-04-18T10:13:22.321Z,92827.00
2023-04-18T10:14:22.241Z,92827.00
2023-04-18T10:15:22.234Z,92831.00
2023-04-18T10:16:24.041Z,92829.00
2023-04-18T10:17:22.049Z,92829.00
2023-04-18T10:18:21.897Z,92827.00
2023-04-18T10:19:21.749Z,92823.00
2023-04-18T10:20:22.534Z,92823.00
2023-04-18T10:21:21.531Z,92821.00
2023-04-18T10:22:21.477Z,92819.00
2023-04-18T10:23:23.025Z,92817.00
2023-04-18T10:24:21.252Z,92817.00
2023-04-18T10:25:21.168Z,92817.00
2023-04-18T10:26:21.990Z,92813.00
2023-04-18T10:27:23.017Z,92815.00
2023-04-18T10:28:21.063Z,92815.00
2023-04-18T10:29:21.077Z,92813.00
2023-04-18T10:30:21.543Z,92813.00
2023-04-18T10:31:20.733Z,92811.00
2023-04-18T10:32:20.613Z,92811.00
2023-04-18T10:33:30.309Z,92813.00
2023-04-18T10:34:21.549Z,92817.00
2023-04-18T10:35:21.017Z,92811.00
2023-04-18T10:36:20.105Z,92811.00
2023-04-18T10:37:19.998Z,92811.00
2023-04-18T10:38:20.015Z,92807.00
2023-04-18T10:39:20.144Z,92811.00
2023-04-18T10:40:20.317Z,92809.00
2023-04-18T10:41:20.480Z,92807.00
2023-04-18T10:42:20.642Z,92807.00
2023-04-18T10:43:20.775Z,92803.00
2023-04-18T10:44:20.923Z,92803.00
2023-04-18T10:45:21.069Z,92805.00
2023-04-18T10:46:31.782Z,92801.00
2023-04-18T10:47:22.230Z,92803.00
2023-04-18T10:48:21.029Z,92801.00
2023-04-18T10:49:22.349Z,92799.00
2023-04-18T10:50:20.695Z,92797.00
2023-04-18T10:51:23.019Z,92797.00
2023-04-18T10:52:20.570Z,92795.00
2023-04-18T10:53:20.436Z,92793.00
2023-04-18T10:54:20.434Z,92795.00
2023-04-18T10:55:20.595Z,92791.00
2023-04-18T10:56:20.693Z,92793.00
2023-04-18T10:57:20.906Z,92791.00
2023-04-18T10:58:21.039Z,92784.00
2023-04-18T10:59:21.174Z,92782.00
2023-04-18T11:00:22.213Z,92784.00
2023-04-18T11:01:22.299Z,92786.00
2023-04-18T11:02:21.148Z,92782.00
2023-04-18T11:03:20.987Z,92782.00
2023-04-18T11:04:21.048Z,92780.00
2023-04-18T11:05:20.622Z,92782.00
2023-04-18T11:06:20.509Z,92784.00
2023-04-18T11:07:20.360Z,92780.00
2023-04-18T11:08:20.229Z,92776.00
2023-04-18T11:09:20.094Z,92778.00
2023-04-18T11:10:20.115Z,92778.00
2023-04-18T11:11:19.821Z,92774.00
2023-04-18T11:12:19.663Z,92774.00
2023-04-18T11:13:19.525Z,92772.00
2023-04-18T11:14:19.396Z,92776.00
2023-04-18T11:15:19.349Z,92776.00
2023-04-18T11:16:19.557Z,92774.00
2023-04-18T11:17:19.725Z,92774.00
2023-04-18T11:18:19.896Z,92774.00
2023-04-18T11:19:20.049Z,92772.00
2023-04-18T11:20:20.240Z,92768.00
2023-04-18T11:21:20.429Z,92770.00
2023-04-18T11:22:20.547Z,92768.00
2023-04-18T11:23:20.771Z,92764.00
2023-04-18T11:24:20.976Z,92762.00
2023-04-18T11:25:21.179Z,92764.00
2023-04-18T11:26:21.293Z,92762.00
2023-04-18T11:27:21.487Z,92756.00
2023-04-18T11:28:21.669Z,92760.00
2023-04-18T11:29:21.777Z,92762.00
2023-04-18T11:30:21.930Z,92760.00
2023-04-18T11:31:22.184Z,92760.00
2023-04-18T11:32:22.418Z,92760.00
2023-04-18T11:33:22.484Z,92760.00
2023-04-18T11:34:22.613Z,92760.00
2023-04-18T11:35:22.771Z,92762.00
2023-04-18T11:36:22.964Z,92764.00
2023-04-18T11:37:23.089Z,92762.00
2023-04-18T11:38:24.318Z,92758.00
2023-04-18T11:39:23.068Z,92762.00
2023-04-18T11:40:22.913Z,92760.00
2023-04-18T11:41:22.748Z,92760.00
2023-04-18T11:42:22.595Z,92758.00
2023-04-18T11:43:22.461Z,92756.00
2023-04-18T11:44:22.330Z,92756.00